Time;durP1;ratioP1;P1;durP2;ratioP2;P2;SDS_P1;SDS_P2;PMS_P1;PMS_P2;Temp;Humidity;BMP_temperature;BMP_pressure;BME280_temperature;BME280_humidity;BME280_pressure;Samples;Min_cycle;Max_cycle;Signal;HPM_P1;HPM_P2
2022/12/30 00:01:06;;;;;;;25.70;3.28;;;6.20;99.90;;;;;;4990363;28;20042;-66
2022/12/30 00:03:32;;;;;;;21.55;2.28;;;5.90;99.90;;;;;;5016092;28;20048;-67
2022/12/30 00:05:58;;;;;;;28.88;3.30;;;6.30;99.90;;;;;;4972595;28;20427;-67
2022/12/30 00:11:08;;;;;;;29.10;3.08;;;6.00;99.90;;;;;;5017690;28;20045;-66
2022/12/30 00:34:32;;;;;;;31.52;3.45;;;6.20;99.90;;;;;;4955716;28;20062;-65
2022/12/30 00:36:58;;;;;;;22.40;2.65;;;6.10;99.90;;;;;;4970876;28;20056;-66
2022/12/30 00:39:24;;;;;;;23.85;3.15;;;6.10;99.90;;;;;;4982166;28;20654;-66
2022/12/30 00:44:34;;;;;;;29.15;3.58;;;6.10;99.90;;;;;;5015967;28;20081;-68
2022/12/30 00:47:01;;;;;;;24.30;3.42;;;5.70;99.90;;;;;;4998212;28;20072;-67
2022/12/30 00:57:39;;;;;;;22.20;2.80;;;5.80;99.90;;;;;;5002195;28;20196;-66
2022/12/30 01:00:07;;;;;;;26.60;3.28;;;5.80;99.90;;;;;;4997665;28;20138;-67
2022/12/30 01:02:32;;;;;;;21.58;2.88;;;5.80;99.90;;;;;;4988089;28;20164;-66
2022/12/30 01:04:58;;;;;;;28.95;2.95;;;5.50;99.90;;;;;;4997691;28;20803;-65
2022/12/30 01:07:26;;;;;;;31.42;3.10;;;5.70;99.90;;;;;;5017080;28;20053;-66
2022/12/30 01:09:52;;;;;;;21.40;2.58;;;5.80;99.90;;;;;;4998853;28;20081;-64
2022/12/30 01:12:17;;;;;;;30.15;2.78;;;5.90;99.90;;;;;;4967016;28;20069;-65
2022/12/30 01:14:52;;;;;;;27.25;3.10;;;5.40;99.90;;;;;;4972965;28;20049;-64
2022/12/30 01:17:25;;;;;;;26.50;3.20;;;5.50;99.90;;;;;;5017079;28;20414;-65
2022/12/30 01:19:50;;;;;;;24.95;3.17;;;5.70;99.90;;;;;;4998336;28;20462;-65
2022/12/30 01:22:16;;;;;;;23.83;3.03;;;5.80;99.90;;;;;;4982884;28;20037;-65
2022/12/30 01:24:42;;;;;;;31.25;3.30;;;5.70;99.90;;;;;;5017410;28;20132;-64
2022/12/30 01:27:08;;;;;;;25.92;3.78;;;5.70;99.90;;;;;;4999047;28;20065;-64
2022/12/30 01:29:39;;;;;;;25.05;2.90;;;5.50;99.90;;;;;;5015538;28;20037;-65
2022/12/30 01:32:09;;;;;;;24.55;3.28;;;5.60;99.90;;;;;;4977476;28;20048;-66
2022/12/30 01:34:36;;;;;;;30.63;3.72;;;5.60;99.90;;;;;;4982680;28;20096;-66
2022/12/30 01:37:01;;;;;;;26.73;3.90;;;5.50;99.90;;;;;;4982380;28;20665;-66
2022/12/30 01:39:27;;;;;;;31.63;4.22;;;5.80;99.90;;;;;;5019238;28;20095;-67
2022/12/30 01:41:54;;;;;;;23.17;2.72;;;5.50;99.90;;;;;;5002228;28;20057;-67
2022/12/30 01:44:49;;;;;;;28.00;3.13;;;5.70;99.90;;;;;;5019280;28;20119;-67
2022/12/30 01:47:40;;;;;;;22.08;3.20;;;5.60;99.90;;;;;;4980705;28;20287;-66
2022/12/30 01:50:12;;;;;;;23.50;3.53;;;5.60;99.90;;;;;;4984561;28;20050;-66
2022/12/30 01:52:45;;;;;;;28.23;3.25;;;5.50;99.90;;;;;;5001170;28;20468;-66
2022/12/30 01:55:22;;;;;;;20.30;3.22;;;5.70;99.90;;;;;;5019808;28;20347;-67
2022/12/30 01:57:50;;;;;;;30.05;4.53;;;5.60;99.90;;;;;;4984801;28;20049;-66
2022/12/30 02:00:16;;;;;;;21.75;2.35;;;5.70;99.90;;;;;;5001318;28;20064;-66
2022/12/30 02:02:42;;;;;;;27.77;3.17;;;5.30;99.90;;;;;;5001762;28;20056;-65
2022/12/30 02:05:09;;;;;;;23.02;2.63;;;5.30;99.90;;;;;;4975255;28;20046;-66
2022/12/30 02:07:45;;;;;;;28.83;3.28;;;5.40;99.90;;;;;;4985223;28;20041;-66
2022/12/30 02:10:12;;;;;;;27.98;3.67;;;5.40;99.90;;;;;;5001843;28;20049;-66
2022/12/30 02:12:38;;;;;;;21.17;2.22;;;5.80;99.90;;;;;;5019420;28;20483;-65
2022/12/30 02:15:04;;;;;;;31.73;3.42;;;5.30;99.90;;;;;;5002137;28;20056;-66
2022/12/30 02:18:08;;;;;;;24.25;3.40;;;5.70;99.90;;;;;;5001245;28;20084;-66
2022/12/30 02:20:52;;;;;;;30.20;3.78;;;5.60;99.90;;;;;;5019125;28;20053;-66
2022/12/30 02:23:36;;;;;;;;;;;5.30;99.90;;;;;;5001468;28;20052;-65
2022/12/30 02:26:34;;;;;;;;;;;5.30;99.90;;;;;;4999511;28;19982;-66
2022/12/30 02:29:34;;;;;;;32.38;3.40;;;5.10;99.90;;;;;;4987368;28;19920;-66
2022/12/30 02:32:15;;;;;;;29.92;3.88;;;5.50;99.90;;;;;;5018600;28;20453;-65
2022/12/30 02:34:57;;;;;;;29.98;3.42;;;5.40;99.90;;;;;;5000929;28;20738;-64
2022/12/30 02:38:14;;;;;;;27.05;3.00;;;5.00;99.90;;;;;;4979223;28;20037;-65
2022/12/30 02:46:41;;;;;;;26.90;3.38;;;5.50;99.90;;;;;;5008613;28;20052;-64
2022/12/30 02:49:10;;;;;;;28.63;3.05;;;5.40;99.90;;;;;;5018391;28;20044;-65
2022/12/30 02:54:24;;;;;;;27.73;3.40;;;5.00;99.90;;;;;;5018214;28;20108;-66
2022/12/30 02:56:51;;;;;;;25.45;2.45;;;5.50;99.90;;;;;;4979811;28;20425;-66
2022/12/30 03:05:10;;;;;;;33.47;3.45;;;5.50;99.90;;;;;;5018539;28;20045;-65
2022/12/30 03:08:06;;;;;;;28.98;3.67;;;5.30;99.90;;;;;;5017673;28;20499;-66
2022/12/30 03:13:54;;;;;;;28.63;3.92;;;5.50;99.90;;;;;;5018236;28;20076;-66
2022/12/30 03:16:39;;;;;;;29.25;3.03;;;5.50;99.90;;;;;;5000677;28;20046;-65
2022/12/30 03:19:26;;;;;;;26.33;3.17;;;5.10;99.90;;;;;;5017520;28;20050;-65
2022/12/30 03:21:53;;;;;;;29.20;2.80;;;5.30;99.90;;;;;;5003669;28;20041;-66
2022/12/30 03:27:11;;;;;;;27.75;3.95;;;5.20;99.90;;;;;;5018738;28;20041;-65
2022/12/30 03:29:42;;;;;;;24.75;2.78;;;5.00;99.90;;;;;;5017956;28;20364;-65
2022/12/30 03:32:11;;;;;;;33.40;3.55;;;5.00;99.90;;;;;;5017803;28;20045;-65
2022/12/30 03:34:38;;;;;;;26.15;3.22;;;4.90;99.90;;;;;;5000117;28;20107;-66
2022/12/30 03:37:28;;;;;;;24.73;3.38;;;5.00;99.90;;;;;;4971536;28;20471;-66
2022/12/30 03:40:02;;;;;;;26.13;2.60;;;5.00;99.90;;;;;;5018133;28;20048;-65
2022/12/30 03:42:29;;;;;;;26.65;3.08;;;4.80;99.90;;;;;;5017287;28;20134;-66
2022/12/30 03:44:55;;;;;;;26.40;3.58;;;5.10;99.90;;;;;;5018007;28;20053;-66
2022/12/30 03:47:21;;;;;;;30.90;3.42;;;5.30;99.90;;;;;;4998657;28;20069;-66
2022/12/30 03:49:46;;;;;;;20.00;2.33;;;4.80;99.90;;;;;;5016334;28;20120;-66
2022/12/30 03:52:20;;;;;;;30.48;3.75;;;5.30;99.90;;;;;;5017325;28;20056;-65
2022/12/30 03:54:49;;;;;;;33.60;3.58;;;4.80;99.90;;;;;;5017478;28;20077;-65
2022/12/30 03:57:16;;;;;;;29.77;3.38;;;4.90;99.90;;;;;;5017295;28;20042;-66
2022/12/30 03:59:42;;;;;;;32.58;3.80;;;5.10;99.90;;;;;;4983106;28;20041;-66
2022/12/30 04:02:07;;;;;;;31.00;3.70;;;4.70;99.90;;;;;;4971812;28;20041;-66
2022/12/30 04:04:33;;;;;;;29.23;3.28;;;5.20;99.90;;;;;;4998325;28;20123;-65
2022/12/30 04:06:59;;;;;;;29.60;3.72;;;4.80;99.90;;;;;;4997994;28;20034;-66
2022/12/30 04:09:25;;;;;;;31.20;3.45;;;5.20;99.90;;;;;;4999949;28;20471;-65
2022/12/30 04:11:50;;;;;;;26.17;3.25;;;4.70;99.90;;;;;;4994278;28;20107;-65
2022/12/30 04:14:16;;;;;;;27.75;3.22;;;4.80;99.90;;;;;;5016441;28;20498;-65
2022/12/30 04:16:42;;;;;;;25.17;2.92;;;4.90;99.90;;;;;;5017169;28;20069;-65
2022/12/30 04:19:08;;;;;;;29.77;3.80;;;4.50;99.90;;;;;;5015747;28;20151;-64
2022/12/30 04:21:33;;;;;;;31.17;3.88;;;4.20;99.90;;;;;;4998555;28;20053;-65
2022/12/30 04:23:59;;;;;;;29.75;3.65;;;4.90;99.90;;;;;;4999472;28;20049;-65
2022/12/30 04:26:25;;;;;;;27.70;4.38;;;4.30;99.90;;;;;;5016068;28;20616;-65
2022/12/30 04:28:51;;;;;;;27.10;4.05;;;4.90;99.90;;;;;;4999411;28;20041;-66
2022/12/30 04:31:16;;;;;;;31.15;4.15;;;4.70;99.90;;;;;;4999646;28;20068;-66
2022/12/30 04:33:42;;;;;;;27.05;3.97;;;4.20;99.90;;;;;;4999219;28;21183;-66
2022/12/30 04:36:08;;;;;;;24.33;3.83;;;4.50;99.90;;;;;;5016404;28;20515;-66
2022/12/30 04:38:34;;;;;;;25.67;4.07;;;4.80;99.90;;;;;;4998556;28;20052;-65
2022/12/30 04:41:00;;;;;;;23.90;3.45;;;4.90;99.90;;;;;;4991246;28;20038;-66
2022/12/30 04:43:26;;;;;;;33.00;3.97;;;4.60;99.90;;;;;;4999744;28;20392;-65
2022/12/30 04:45:52;;;;;;;33.40;5.32;;;4.80;99.90;;;;;;4982565;28;20041;-65
2022/12/30 04:48:18;;;;;;;24.42;3.80;;;4.90;99.90;;;;;;5016199;28;20262;-65
2022/12/30 04:50:45;;;;;;;29.35;3.92;;;4.90;99.90;;;;;;4998879;28;20047;-65
2022/12/30 04:53:11;;;;;;;24.20;4.20;;;4.60;99.90;;;;;;4999210;28;20042;-65
2022/12/30 04:55:38;;;;;;;25.45;4.25;;;4.30;99.90;;;;;;5016058;28;20110;-65
2022/12/30 04:58:04;;;;;;;26.77;3.90;;;4.40;99.90;;;;;;4998627;28;20041;-66
2022/12/30 05:00:30;;;;;;;24.73;3.95;;;4.20;99.90;;;;;;4998487;28;20049;-66
2022/12/30 05:02:55;;;;;;;26.23;3.97;;;4.20;99.90;;;;;;4998905;28;20084;-65
2022/12/30 05:05:21;;;;;;;28.27;4.13;;;5.10;99.90;;;;;;5016422;28;20049;-65
2022/12/30 05:07:47;;;;;;;25.98;3.75;;;4.90;99.90;;;;;;4999029;28;20395;-64
2022/12/30 05:10:12;;;;;;;27.92;3.83;;;4.70;99.90;;;;;;4999178;28;20094;-65
2022/12/30 05:12:39;;;;;;;24.20;3.80;;;4.90;99.90;;;;;;4968112;28;20034;-66
2022/12/30 05:15:05;;;;;;;33.40;4.07;;;4.50;99.90;;;;;;5003332;28;20130;-66
2022/12/30 05:17:31;;;;;;;31.50;4.50;;;4.90;99.90;;;;;;5019394;28;20136;-66
2022/12/30 05:19:56;;;;;;;25.92;4.55;;;4.50;99.90;;;;;;4990116;28;20129;-66
2022/12/30 05:22:22;;;;;;;20.90;4.10;;;4.80;99.90;;;;;;5020757;28;20052;-65
2022/12/30 05:27:32;;;;;;;21.60;4.95;;;4.80;99.90;;;;;;5004694;28;20511;-66
2022/12/30 05:29:57;;;;;;;21.90;4.40;;;5.20;99.90;;;;;;5002565;28;20057;-65
2022/12/30 05:32:23;;;;;;;18.58;3.65;;;5.00;99.90;;;;;;4981129;28;20384;-66
2022/12/30 05:34:49;;;;;;;31.88;5.43;;;4.50;99.90;;;;;;5001008;28;20041;-64
2022/12/30 05:37:15;;;;;;;30.02;5.40;;;4.50;99.90;;;;;;5001737;28;20092;-65
2022/12/30 05:39:40;;;;;;;30.58;5.05;;;5.20;99.90;;;;;;5018687;28;20050;-65
2022/12/30 05:42:06;;;;;;;26.02;5.63;;;4.50;99.90;;;;;;5020570;28;20037;-65
2022/12/30 05:44:32;;;;;;;28.73;5.93;;;5.30;99.90;;;;;;5009499;28;20037;-66
2022/12/30 05:46:57;;;;;;;18.08;5.80;;;5.20;99.90;;;;;;5001744;28;20087;-64
2022/12/30 05:49:23;;;;;;;28.20;6.82;;;5.30;99.90;;;;;;4979582;28;20108;-66
2022/12/30 05:51:49;;;;;;;20.70;6.13;;;5.10;99.90;;;;;;5002081;28;20038;-66
2022/12/30 05:54:15;;;;;;;30.02;7.40;;;5.40;99.90;;;;;;5001638;28;20562;-65
2022/12/30 05:56:40;;;;;;;25.63;7.22;;;5.40;99.90;;;;;;5019822;28;20060;-68
2022/12/30 05:59:09;;;;;;;27.10;8.15;;;5.60;99.90;;;;;;5018917;28;20399;-65
2022/12/30 06:01:35;;;;;;;26.60;7.60;;;5.00;99.90;;;;;;5018560;28;20069;-64
2022/12/30 06:04:01;;;;;;;23.83;6.85;;;5.50;99.90;;;;;;5018675;28;20045;-66
2022/12/30 06:06:26;;;;;;;28.38;8.40;;;5.10;99.90;;;;;;5000457;28;20123;-64
2022/12/30 06:08:52;;;;;;;32.75;8.32;;;5.00;99.90;;;;;;5001177;28;20037;-65
2022/12/30 06:11:18;;;;;;;24.27;7.60;;;5.00;99.90;;;;;;5001828;28;20577;-64
2022/12/30 06:13:43;;;;;;;21.25;6.75;;;5.30;99.90;;;;;;5019512;28;20037;-65
2022/12/30 06:16:09;;;;;;;23.23;7.45;;;5.20;99.90;;;;;;4973676;28;20041;-66
2022/12/30 06:18:35;;;;;;;25.60;7.22;;;5.40;99.90;;;;;;4984964;28;20053;-66
2022/12/30 06:21:01;;;;;;;19.02;5.72;;;5.20;99.90;;;;;;5000137;28;20758;-66
2022/12/30 06:23:26;;;;;;;27.63;6.32;;;5.00;99.90;;;;;;5019173;28;20490;-66
2022/12/30 06:25:54;;;;;;;22.33;6.90;;;5.10;99.90;;;;;;4983275;28;20076;-66
2022/12/30 06:28:21;;;;;;;22.17;6.95;;;5.20;99.90;;;;;;4985162;28;20037;-66
2022/12/30 06:30:48;;;;;;;20.00;5.82;;;5.30;99.90;;;;;;5018238;28;20652;-67
2022/12/30 06:33:14;;;;;;;20.67;5.20;;;5.10;99.90;;;;;;5018969;28;20046;-66
2022/12/30 06:35:39;;;;;;;20.67;6.07;;;4.70;99.90;;;;;;4984846;28;20569;-67
2022/12/30 06:38:05;;;;;;;15.23;4.28;;;4.90;99.90;;;;;;5017994;28;20358;-67
2022/12/30 06:40:31;;;;;;;19.08;4.75;;;5.00;99.90;;;;;;5000731;28;20095;-67
2022/12/30 06:42:56;;;;;;;22.20;4.72;;;4.70;99.90;;;;;;4983315;28;20107;-64
2022/12/30 06:45:23;;;;;;;23.05;4.78;;;4.40;99.90;;;;;;5001729;28;20045;-65
2022/12/30 06:47:49;;;;;;;22.83;4.57;;;4.30;99.90;;;;;;5018144;28;20053;-65
2022/12/30 06:50:14;;;;;;;20.55;4.32;;;4.90;99.90;;;;;;5000558;28;20049;-66
2022/12/30 06:52:40;;;;;;;22.67;4.25;;;4.90;99.90;;;;;;4985652;28;20045;-67
2022/12/30 06:55:06;;;;;;;16.65;4.10;;;4.80;99.90;;;;;;5000382;28;20045;-66
2022/12/30 06:57:33;;;;;;;15.10;2.92;;;4.30;99.90;;;;;;5001478;28;20095;-67
2022/12/30 06:59:59;;;;;;;19.20;3.88;;;4.50;99.90;;;;;;5018992;28;20045;-66
2022/12/30 07:02:25;;;;;;;23.42;4.13;;;4.70;99.90;;;;;;4983885;28;20526;-66
2022/12/30 07:04:50;;;;;;;16.10;3.50;;;4.50;99.90;;;;;;5018714;28;20500;-65
2022/12/30 07:07:16;;;;;;;21.25;4.05;;;4.10;99.90;;;;;;5000768;28;20768;-65
2022/12/30 07:09:42;;;;;;;24.83;4.32;;;4.60;99.90;;;;;;5017611;28;20041;-66
2022/12/30 07:12:07;;;;;;;15.95;3.67;;;4.30;99.90;;;;;;5000367;28;20048;-65
2022/12/30 07:14:33;;;;;;;15.35;3.22;;;4.50;99.90;;;;;;4999370;28;20045;-67
2022/12/30 07:16:59;;;;;;;14.40;2.97;;;4.60;99.90;;;;;;5018247;28;20084;-66
2022/12/30 07:19:25;;;;;;;17.65;3.38;;;4.20;99.90;;;;;;5018953;28;20197;-65
2022/12/30 07:21:51;;;;;;;22.05;3.35;;;4.30;99.90;;;;;;5017629;28;20044;-65
2022/12/30 07:24:16;;;;;;;18.40;3.30;;;4.60;99.90;;;;;;5016737;28;20053;-67
2022/12/30 07:26:42;;;;;;;21.17;2.83;;;4.10;99.90;;;;;;4974417;28;20179;-65
2022/12/30 07:29:08;;;;;;;17.27;3.17;;;4.10;99.90;;;;;;5000048;28;20233;-65
2022/12/30 07:31:33;;;;;;;24.92;3.83;;;4.50;99.90;;;;;;4972420;28;20048;-67
2022/12/30 07:33:59;;;;;;;20.52;3.03;;;4.00;99.90;;;;;;5000172;28;20063;-67
2022/12/30 07:36:25;;;;;;;18.77;2.75;;;3.80;99.90;;;;;;4983064;28;20427;-67
2022/12/30 07:38:51;;;;;;;17.35;3.03;;;4.50;99.90;;;;;;4998573;28;20128;-65
2022/12/30 07:41:16;;;;;;;16.75;2.70;;;4.40;99.90;;;;;;5018417;28;20050;-66
2022/12/30 07:43:42;;;;;;;14.35;3.25;;;4.50;99.90;;;;;;5017529;28;20156;-64
2022/12/30 07:46:08;;;;;;;21.08;3.20;;;4.60;99.90;;;;;;4991197;28;20042;-64
2022/12/30 07:48:35;;;;;;;19.90;3.10;;;4.30;99.90;;;;;;4982922;28;20048;-64
2022/12/30 07:51:13;;;;;;;16.00;2.63;;;4.10;99.90;;;;;;4999282;28;20403;-64
2022/12/30 07:53:39;;;;;;;17.70;3.00;;;4.50;99.90;;;;;;5000151;28;20037;-65
2022/12/30 07:56:07;;;;;;;21.40;2.50;;;3.80;99.90;;;;;;4998103;28;20510;-64
2022/12/30 07:58:32;;;;;;;17.35;2.63;;;3.90;99.90;;;;;;4983163;28;20045;-64
2022/12/30 08:01:04;;;;;;;15.45;2.40;;;4.40;99.90;;;;;;4996903;28;20365;-64
2022/12/30 08:03:30;;;;;;;19.10;3.30;;;4.00;99.90;;;;;;4999152;28;20088;-65
2022/12/30 08:05:56;;;;;;;19.85;3.17;;;4.30;99.90;;;;;;4988132;28;20152;-65
2022/12/30 08:08:26;;;;;;;22.25;3.28;;;4.40;99.90;;;;;;4993383;28;20045;-65
2022/12/30 08:10:56;;;;;;;14.48;2.15;;;4.30;99.90;;;;;;5018383;28;20041;-65
2022/12/30 08:13:22;;;;;;;17.73;2.75;;;4.50;99.90;;;;;;5018016;28;20480;-64
2022/12/30 08:15:48;;;;;;;17.42;2.90;;;3.80;99.90;;;;;;5017291;28;20052;-64
2022/12/30 08:18:14;;;;;;;15.65;2.10;;;4.00;99.90;;;;;;4985421;28;20072;-63
2022/12/30 08:20:40;;;;;;;16.02;2.33;;;4.00;99.90;;;;;;5000364;28;20392;-64
2022/12/30 08:23:06;;;;;;;14.38;2.70;;;4.50;99.90;;;;;;5017926;28;20049;-65
2022/12/30 08:25:31;;;;;;;19.58;2.75;;;4.20;99.90;;;;;;4971077;28;20389;-65
2022/12/30 08:27:57;;;;;;;15.95;2.20;;;3.90;99.90;;;;;;5000228;28;20053;-66
2022/12/30 08:30:23;;;;;;;25.63;3.42;;;4.30;99.90;;;;;;4983012;28;20454;-65
2022/12/30 08:32:49;;;;;;;16.88;2.47;;;4.20;99.90;;;;;;4998824;28;20412;-64
2022/12/30 08:35:15;;;;;;;22.52;2.70;;;4.50;99.90;;;;;;5001343;28;20508;-65
2022/12/30 08:37:41;;;;;;;17.88;2.40;;;4.10;99.90;;;;;;4998709;28;20041;-65
2022/12/30 08:40:07;;;;;;;17.88;2.83;;;4.60;99.90;;;;;;4998214;28;20451;-65
2022/12/30 08:42:35;;;;;;;18.88;2.17;;;4.70;99.90;;;;;;5000998;28;20048;-65
2022/12/30 08:45:01;;;;;;;17.27;2.05;;;4.20;99.90;;;;;;4999546;28;20175;-66
2022/12/30 08:47:28;;;;;;;18.35;2.70;;;4.80;99.90;;;;;;4988460;28;20053;-65
2022/12/30 08:49:53;;;;;;;23.20;2.88;;;4.80;99.90;;;;;;5003691;28;20586;-65
2022/12/30 08:52:19;;;;;;;21.05;2.45;;;4.30;99.90;;;;;;4976650;28;20071;-65
2022/12/30 08:54:45;;;;;;;20.25;2.20;;;4.50;99.90;;;;;;5001008;28;20672;-65
2022/12/30 08:57:11;;;;;;;19.58;2.17;;;5.00;99.90;;;;;;4986872;28;21345;-66
2022/12/30 08:59:38;;;;;;;15.20;2.55;;;4.80;99.90;;;;;;5002982;28;20049;-65
2022/12/30 09:02:04;;;;;;;19.20;2.70;;;5.00;99.90;;;;;;4999774;28;20060;-64
2022/12/30 09:04:30;;;;;;;12.90;1.92;;;5.00;99.90;;;;;;4871515;28;20049;-64
2022/12/30 09:06:56;;;;;;;18.25;2.78;;;5.20;99.90;;;;;;4933302;28;20461;-66
2022/12/30 09:09:22;;;;;;;18.00;2.28;;;5.20;99.90;;;;;;5022350;28;20055;-65
2022/12/30 09:11:48;;;;;;;24.08;2.75;;;5.10;99.90;;;;;;5037902;28;20076;-65
2022/12/30 09:14:15;;;;;;;17.42;2.67;;;4.90;99.90;;;;;;5036625;28;20044;-65
2022/12/30 09:16:41;;;;;;;18.95;3.50;;;5.30;99.90;;;;;;5038773;28;20104;-63
2022/12/30 09:19:07;;;;;;;18.77;3.28;;;5.00;99.90;;;;;;5037785;28;20057;-64
2022/12/30 09:21:33;;;;;;;19.95;3.95;;;5.40;99.90;;;;;;5036824;28;20044;-66
2022/12/30 09:23:59;;;;;;;17.70;3.05;;;5.50;99.90;;;;;;5037104;28;20155;-63
2022/12/30 09:26:26;;;;;;;16.90;2.72;;;5.30;99.90;;;;;;5037126;28;20874;-63
2022/12/30 09:28:51;;;;;;;14.30;2.38;;;5.40;99.90;;;;;;5055601;28;20045;-65
2022/12/30 09:31:17;;;;;;;16.58;2.95;;;5.30;99.90;;;;;;5038181;28;20048;-65
2022/12/30 09:33:43;;;;;;;22.63;3.58;;;5.40;99.90;;;;;;5023704;28;20103;-64
2022/12/30 09:36:09;;;;;;;15.15;2.38;;;5.10;99.90;;;;;;5040673;28;20037;-64
2022/12/30 09:38:35;;;;;;;12.90;2.72;;;5.30;99.90;;;;;;5037910;28;20045;-63
2022/12/30 09:44:51;;;;;;;18.75;2.83;;;5.30;99.90;;;;;;5039285;28;20060;-63
2022/12/30 09:47:29;;;;;;;15.20;2.67;;;5.30;99.90;;;;;;5011024;28;20079;-64
2022/12/30 09:50:26;;;;;;;14.48;2.50;;;5.40;99.90;;;;;;5040771;28;20126;-65
2022/12/30 09:53:31;;;;;;;12.65;1.73;;;5.70;99.90;;;;;;5043265;28;20045;-66
2022/12/30 09:56:01;;;;;;;16.90;2.30;;;5.70;99.90;;;;;;5041616;28;20083;-65
2022/12/30 09:58:30;;;;;;;9.38;2.13;;;5.70;99.90;;;;;;5041415;28;20483;-65
2022/12/30 10:01:26;;;;;;;19.00;2.60;;;5.70;99.90;;;;;;5040818;28;20593;-64
2022/12/30 10:03:56;;;;;;;15.02;2.53;;;5.50;99.90;;;;;;5032792;28;20052;-64
2022/12/30 10:06:25;;;;;;;17.90;2.60;;;5.90;99.90;;;;;;5024320;28;20128;-63
2022/12/30 10:09:28;;;;;;;14.32;1.77;;;5.90;99.90;;;;;;5037166;28;20075;-63
2022/12/30 10:12:13;;;;;;;16.13;2.08;;;5.80;99.90;;;;;;5031055;28;20155;-64
2022/12/30 10:15:04;;;;;;;13.27;1.75;;;5.60;99.90;;;;;;5033738;28;20048;-64
2022/12/30 10:18:04;;;;;;;9.90;1.63;;;6.00;99.90;;;;;;5035265;28;20049;-64
2022/12/30 10:20:57;;;;;;;9.75;1.90;;;5.70;99.90;;;;;;5037160;28;20080;-65
2022/12/30 10:23:41;;;;;;;14.65;2.22;;;5.80;99.90;;;;;;5035513;28;20055;-64
2022/12/30 10:26:19;;;;;;;;;;;6.10;99.90;;;;;;5035795;28;20071;-65
2022/12/30 10:28:51;;;;;;;15.07;1.92;;;6.10;99.90;;;;;;5033978;28;19929;-65
2022/12/30 10:31:23;;;;;;;9.30;2.00;;;5.90;99.90;;;;;;5017423;28;20110;-65
2022/12/30 10:33:52;;;;;;;14.70;2.22;;;6.30;99.90;;;;;;5036530;28;20116;-64
2022/12/30 10:36:33;;;;;;;11.80;1.95;;;6.10;99.90;;;;;;5035510;28;20056;-64
2022/12/30 10:39:12;;;;;;;11.10;2.05;;;6.20;99.90;;;;;;5036938;28;20087;-65
2022/12/30 10:42:16;;;;;;;12.32;2.10;;;6.40;99.90;;;;;;5038984;28;20044;-64
2022/12/30 10:45:01;;;;;;;;;;;6.50;99.90;;;;;;5014740;28;20041;-65
2022/12/30 10:47:45;;;;;;;16.13;2.38;;;6.40;99.90;;;;;;5039068;28;20012;-63
2022/12/30 10:50:40;;;;;;;11.85;2.42;;;6.50;99.90;;;;;;5038661;28;20045;-65
2022/12/30 10:53:13;;;;;;;11.20;1.27;;;6.60;99.90;;;;;;5038546;28;20056;-64
2022/12/30 10:56:00;;;;;;;12.00;1.40;;;6.70;99.90;;;;;;5039682;28;20392;-64
2022/12/30 10:58:40;;;;;;;11.23;1.55;;;6.70;38.10;;;;;;5031443;28;20390;-65
2022/12/30 11:01:13;;;;;;;8.98;1.20;;;6.70;99.90;;;;;;5038024;28;20087;-65
2022/12/30 11:03:42;;;;;;;;;;;6.80;99.90;;;;;;5018231;28;20091;-65
2022/12/30 11:06:36;;;;;;;13.52;1.35;;;6.80;99.70;;;;;;5017532;28;19932;-64
2022/12/30 11:09:13;;;;;;;11.43;1.80;;;6.90;99.90;;;;;;5017666;28;20113;-63
2022/12/30 11:14:44;;;;;;;7.22;1.10;;;7.30;1.00;;;;;;5018887;28;20431;-63
2022/12/30 11:17:16;;;;;;;8.68;1.23;;;7.50;1.00;;;;;;5018163;28;20034;-65
2022/12/30 11:19:43;;;;;;;9.73;1.30;;;7.60;1.00;;;;;;5017687;28;20305;-64
2022/12/30 11:22:10;;;;;;;11.18;1.85;;;7.80;1.90;;;;;;5018136;28;20041;-64
2022/12/30 11:24:44;;;;;;;10.15;1.50;;;7.70;23.40;;;;;;5001485;28;20064;-63
2022/12/30 11:27:10;;;;;;;12.60;1.88;;;7.70;1.00;;;;;;5017245;28;20042;-64
2022/12/30 11:29:36;;;;;;;7.78;1.02;;;7.70;1.00;;;;;;5000821;28;20376;-64
2022/12/30 11:32:10;;;;;;;7.90;1.17;;;7.50;99.90;;;;;;5018691;28;20033;-65
2022/12/30 11:34:43;;;;;;;6.28;1.20;;;7.50;99.90;;;;;;5001588;28;20049;-64
2022/12/30 11:37:30;;;;;;;6.95;0.93;;;7.60;99.90;;;;;;4985566;28;20096;-63
2022/12/30 11:39:56;;;;;;;10.32;1.60;;;7.50;99.90;;;;;;5017502;28;20041;-64
2022/12/30 11:42:30;;;;;;;8.50;1.23;;;7.40;99.90;;;;;;5019719;28;20132;-64
2022/12/30 11:45:18;;;;;;;7.63;0.80;;;7.40;99.90;;;;;;5019491;28;20499;-63
2022/12/30 11:47:46;;;;;;;8.88;1.50;;;7.40;99.90;;;;;;5017382;28;20069;-62
2022/12/30 11:50:17;;;;;;;6.40;1.27;;;7.50;99.90;;;;;;5020017;28;20110;-64
2022/12/30 11:52:50;;;;;;;6.95;0.88;;;7.50;99.90;;;;;;5016676;28;20053;-63
2022/12/30 11:55:23;;;;;;;8.23;1.33;;;7.40;99.90;;;;;;5017683;28;20470;-64
2022/12/30 11:57:51;;;;;;;6.22;1.27;;;7.40;99.90;;;;;;5017707;28;20124;-64
2022/12/30 12:00:16;;;;;;;9.63;1.50;;;7.40;99.90;;;;;;5020355;28;20041;-64
2022/12/30 12:03:03;;;;;;;7.93;1.02;;;7.50;99.90;;;;;;5043594;28;20057;-64
2022/12/30 12:05:41;;;;;;;9.07;1.25;;;7.50;99.90;;;;;;5059862;28;20647;-63
2022/12/30 12:08:28;;;;;;;8.48;1.17;;;7.60;99.90;;;;;;5058799;28;20219;-64
2022/12/30 12:10:58;;;;;;;7.43;1.00;;;7.50;99.90;;;;;;5059219;28;20044;-63
2022/12/30 12:14:02;;;;;;;11.13;1.27;;;7.50;99.90;;;;;;5040655;28;20144;-64
2022/12/30 12:16:45;;;;;;;5.97;0.90;;;7.60;99.90;;;;;;5057512;28;20037;-65
2022/12/30 12:19:23;;;;;;;5.43;0.60;;;7.60;99.90;;;;;;5039479;28;20366;-63
2022/12/30 12:21:54;;;;;;;6.50;1.20;;;7.70;99.90;;;;;;5022214;28;20048;-64
2022/12/30 12:24:36;;;;;;;6.80;1.23;;;7.60;99.90;;;;;;5056934;28;20049;-63
2022/12/30 12:27:18;;;;;;;7.15;0.93;;;7.70;99.90;;;;;;5055608;28;20408;-64
2022/12/30 12:29:45;;;;;;;4.63;0.60;;;7.70;99.90;;;;;;5056725;28;20052;-64
2022/12/30 12:32:35;;;;;;;5.97;0.70;;;7.60;99.90;;;;;;5023199;28;20047;-65
2022/12/30 12:35:22;;;;;;;8.52;1.02;;;7.60;99.90;;;;;;5039700;28;20510;-65
2022/12/30 12:38:07;;;;;;;7.97;0.80;;;7.70;99.90;;;;;;5039618;28;20048;-64
2022/12/30 12:40:40;;;;;;;7.95;1.05;;;7.70;99.90;;;;;;5039117;28;20040;-63
2022/12/30 12:43:25;;;;;;;6.82;1.20;;;7.80;99.90;;;;;;5038141;28;20056;-64
2022/12/30 12:46:26;;;;;;;6.82;0.80;;;7.70;99.90;;;;;;5056556;28;20056;-65
2022/12/30 12:49:14;;;;;;;6.07;0.60;;;7.80;99.90;;;;;;5037416;28;20044;-64
2022/12/30 12:52:08;;;;;;;6.00;0.80;;;7.80;99.90;;;;;;5037396;28;20055;-65
2022/12/30 12:54:58;;;;;;;6.03;0.50;;;7.80;99.90;;;;;;5037625;28;20083;-63
2022/12/30 12:57:44;;;;;;;4.25;0.60;;;7.90;99.90;;;;;;5037825;28;20460;-64
2022/12/30 13:00:17;;;;;;;6.05;0.68;;;7.90;99.90;;;;;;5056435;28;20051;-64
2022/12/30 13:03:21;;;;;;;5.93;0.60;;;7.90;99.90;;;;;;5023980;28;20488;-64
2022/12/30 13:06:09;;;;;;;6.45;0.60;;;8.00;99.90;;;;;;5017532;28;20049;-64
2022/12/30 13:08:56;;;;;;;4.72;0.50;;;8.10;99.90;;;;;;5017620;28;20041;-63
2022/12/30 13:11:44;;;;;;;8.45;0.80;;;8.20;99.90;;;;;;5018773;28;20585;-63
2022/12/30 13:14:18;;;;;;;5.25;0.55;;;8.20;99.90;;;;;;5017120;28;20577;-64
2022/12/30 13:16:48;;;;;;;7.53;0.52;;;8.20;99.90;;;;;;5020282;28;20118;-64
2022/12/30 13:19:16;;;;;;;5.05;0.60;;;8.30;99.90;;;;;;5017435;28;20069;-64
2022/12/30 13:21:45;;;;;;;6.05;0.57;;;8.30;99.90;;;;;;5002049;28;20048;-64
2022/12/30 13:24:34;;;;;;;3.28;0.30;;;8.30;99.90;;;;;;5019091;28;20064;-65
2022/12/30 13:27:01;;;;;;;3.05;0.30;;;8.30;99.90;;;;;;5018151;28;20342;-63
2022/12/30 13:29:32;;;;;;;6.25;0.43;;;8.30;99.90;;;;;;5019499;28;20361;-64
2022/12/30 13:32:32;;;;;;;4.93;0.60;;;8.40;99.90;;;;;;4996561;28;20040;-64
2022/12/30 13:35:11;;;;;;;4.90;0.43;;;8.40;99.90;;;;;;5020341;28;20056;-63
2022/12/30 13:37:57;;;;;;;5.50;0.50;;;8.40;99.90;;;;;;5005030;28;20045;-64
2022/12/30 13:40:30;;;;;;;4.15;0.52;;;8.40;99.90;;;;;;5005164;28;20085;-64
2022/12/30 13:43:12;;;;;;;5.72;0.63;;;8.30;99.90;;;;;;5023160;28;20049;-64
2022/12/30 13:45:47;;;;;;;5.97;0.55;;;8.30;99.90;;;;;;5022930;28;20340;-63
2022/12/30 13:48:18;;;;;;;4.82;0.50;;;8.20;99.90;;;;;;5020431;28;20049;-63
2022/12/30 13:50:44;;;;;;;5.32;0.63;;;8.20;99.90;;;;;;5021000;28;20158;-65
2022/12/30 13:53:42;;;;;;;3.58;0.55;;;8.20;99.90;;;;;;4987465;28;20574;-64
2022/12/30 13:56:10;;;;;;;4.50;0.52;;;8.20;99.90;;;;;;5020298;28;20246;-64
2022/12/30 13:58:44;;;;;;;7.75;0.70;;;8.10;99.90;;;;;;5021727;28;20054;-63
2022/12/30 14:01:18;;;;;;;1.75;0.35;;;8.10;99.90;;;;;;5018242;28;20060;-63
2022/12/30 14:03:48;;;;;;;4.90;0.40;;;8.10;99.90;;;;;;5056000;28;20075;-64
2022/12/30 14:06:39;;;;;;;4.43;0.88;;;8.10;99.90;;;;;;5041060;28;20578;-64
2022/12/30 14:09:32;;;;;;;5.18;0.47;;;8.10;99.90;;;;;;5040736;28;20492;-64
2022/12/30 14:12:08;;;;;;;3.38;0.47;;;8.10;99.90;;;;;;5031613;28;20582;-64
2022/12/30 14:14:40;;;;;;;5.75;0.60;;;8.10;99.90;;;;;;5057602;28;20420;-63
2022/12/30 14:17:13;;;;;;;4.35;0.57;;;8.10;99.90;;;;;;5040762;28;20048;-63
2022/12/30 14:20:06;;;;;;;5.07;0.55;;;8.10;99.90;;;;;;5039615;28;20044;-63